sensor_id;sensor_type;location;lat;lon;timestamp;P1;durP1;ratioP1;P2;durP2;ratioP2
27003;SDS011;14546;47.590;19.022;2023-02-01T00:01:51;7.15;;;3.47;;
27003;SDS011;14546;47.590;19.022;2023-02-01T00:04:17;9.02;;;3.78;;
27003;SDS011;14546;47.590;19.022;2023-02-01T00:06:43;4.50;;;2.42;;
27003;SDS011;14546;47.590;19.022;2023-02-01T00:09:09;4.25;;;2.75;;
27003;SDS011;14546;47.590;19.022;2023-02-01T00:11:35;6.80;;;2.75;;
27003;SDS011;14546;47.590;19.022;2023-02-01T00:14:01;6.82;;;2.60;;
27003;SDS011;14546;47.590;19.022;2023-02-01T00:16:28;5.38;;;2.60;;
27003;SDS011;14546;47.590;19.022;2023-02-01T00:19:05;5.38;;;2.55;;
27003;SDS011;14546;47.590;19.022;2023-02-01T00:21:31;9.13;;;2.80;;
27003;SDS011;14546;47.590;19.022;2023-02-01T00:23:57;10.05;;;2.90;;
27003;SDS011;14546;47.590;19.022;2023-02-01T00:26:32;9.63;;;2.50;;
27003;SDS011;14546;47.590;19.022;2023-02-01T00:28:58;5.57;;;2.22;;
27003;SDS011;14546;47.590;19.022;2023-02-01T00:31:24;11.60;;;2.90;;
27003;SDS011;14546;47.590;19.022;2023-02-01T00:33:50;5.07;;;2.90;;
27003;SDS011;14546;47.590;19.022;2023-02-01T00:36:16;6.65;;;2.78;;
27003;SDS011;14546;47.590;19.022;2023-02-01T00:38:43;7.35;;;2.65;;
27003;SDS011;14546;47.590;19.022;2023-02-01T00:41:13;4.63;;;2.40;;
27003;SDS011;14546;47.590;19.022;2023-02-01T00:43:39;5.97;;;3.00;;
27003;SDS011;14546;47.590;19.022;2023-02-01T00:46:05;8.65;;;3.35;;
27003;SDS011;14546;47.590;19.022;2023-02-01T00:48:31;6.75;;;3.00;;
27003;SDS011;14546;47.590;19.022;2023-02-01T00:51:01;5.47;;;3.22;;
27003;SDS011;14546;47.590;19.022;2023-02-01T00:53:28;5.47;;;2.75;;
27003;SDS011;14546;47.590;19.022;2023-02-01T00:55:54;6.15;;;2.80;;
27003;SDS011;14546;47.590;19.022;2023-02-01T00:58:21;5.20;;;2.83;;
27003;SDS011;14546;47.590;19.022;2023-02-01T01:00:49;6.43;;;3.13;;
27003;SDS011;14546;47.590;19.022;2023-02-01T01:03:15;5.57;;;3.00;;
27003;SDS011;14546;47.590;19.022;2023-02-01T01:05:45;3.67;;;2.80;;
27003;SDS011;14546;47.590;19.022;2023-02-01T01:08:11;8.40;;;3.15;;
27003;SDS011;14546;47.590;19.022;2023-02-01T01:10:37;6.97;;;3.22;;
27003;SDS011;14546;47.590;19.022;2023-02-01T01:13:03;7.20;;;2.70;;
27003;SDS011;14546;47.590;19.022;2023-02-01T01:15:30;5.32;;;2.78;;
27003;SDS011;14546;47.590;19.022;2023-02-01T01:17:56;4.35;;;3.20;;
27003;SDS011;14546;47.590;19.022;2023-02-01T01:20:22;5.15;;;3.20;;
27003;SDS011;14546;47.590;19.022;2023-02-01T01:22:48;5.55;;;2.95;;
27003;SDS011;14546;47.590;19.022;2023-02-01T01:25:14;6.90;;;2.78;;
27003;SDS011;14546;47.590;19.022;2023-02-01T01:27:40;8.70;;;3.22;;
27003;SDS011;14546;47.590;19.022;2023-02-01T01:30:06;7.00;;;2.70;;
27003;SDS011;14546;47.590;19.022;2023-02-01T01:32:32;6.43;;;3.00;;
27003;SDS011;14546;47.590;19.022;2023-02-01T01:34:58;5.80;;;2.85;;
27003;SDS011;14546;47.590;19.022;2023-02-01T01:37:24;4.50;;;2.90;;
27003;SDS011;14546;47.590;19.022;2023-02-01T01:39:50;4.13;;;2.40;;
27003;SDS011;14546;47.590;19.022;2023-02-01T01:42:16;4.63;;;2.80;;
27003;SDS011;14546;47.590;19.022;2023-02-01T01:47:25;3.88;;;2.50;;
27003;SDS011;14546;47.590;19.022;2023-02-01T01:49:52;5.65;;;2.97;;
27003;SDS011;14546;47.590;19.022;2023-02-01T01:52:18;8.32;;;2.90;;
27003;SDS011;14546;47.590;19.022;2023-02-01T01:54:48;5.47;;;2.67;;
27003;SDS011;14546;47.590;19.022;2023-02-01T01:57:32;5.47;;;2.80;;
27003;SDS011;14546;47.590;19.022;2023-02-01T02:00:04;4.47;;;2.80;;
27003;SDS011;14546;47.590;19.022;2023-02-01T02:02:32;4.57;;;2.50;;
27003;SDS011;14546;47.590;19.022;2023-02-01T02:04:58;4.03;;;2.55;;
27003;SDS011;14546;47.590;19.022;2023-02-01T02:07:28;4.03;;;2.67;;
27003;SDS011;14546;47.590;19.022;2023-02-01T02:09:55;3.72;;;2.33;;
27003;SDS011;14546;47.590;19.022;2023-02-01T02:12:22;6.97;;;3.00;;
27003;SDS011;14546;47.590;19.022;2023-02-01T02:14:48;4.35;;;2.35;;
27003;SDS011;14546;47.590;19.022;2023-02-01T02:22:25;6.55;;;2.95;;
27003;SDS011;14546;47.590;19.022;2023-02-01T02:24:59;5.18;;;3.20;;
27003;SDS011;14546;47.590;19.022;2023-02-01T02:32:29;4.72;;;3.42;;
27003;SDS011;14546;47.590;19.022;2023-02-01T02:37:44;4.85;;;2.72;;
27003;SDS011;14546;47.590;19.022;2023-02-01T02:42:52;5.70;;;2.97;;
27003;SDS011;14546;47.590;19.022;2023-02-01T02:46:25;7.70;;;3.00;;
27003;SDS011;14546;47.590;19.022;2023-02-01T02:51:27;4.75;;;2.75;;
27003;SDS011;14546;47.590;19.022;2023-02-01T02:54:25;5.43;;;2.80;;
27003;SDS011;14546;47.590;19.022;2023-02-01T02:57:13;3.67;;;2.47;;
27003;SDS011;14546;47.590;19.022;2023-02-01T03:00:00;3.78;;;2.42;;
27003;SDS011;14546;47.590;19.022;2023-02-01T03:02:46;7.97;;;2.58;;
27003;SDS011;14546;47.590;19.022;2023-02-01T03:05:35;7.90;;;2.75;;
27003;SDS011;14546;47.590;19.022;2023-02-01T03:13:14;5.95;;;2.35;;
27003;SDS011;14546;47.590;19.022;2023-02-01T03:18:22;4.13;;;2.40;;
27003;SDS011;14546;47.590;19.022;2023-02-01T03:20:52;4.10;;;2.50;;
27003;SDS011;14546;47.590;19.022;2023-02-01T03:23:19;6.50;;;2.60;;
27003;SDS011;14546;47.590;19.022;2023-02-01T03:25:47;4.13;;;2.53;;
27003;SDS011;14546;47.590;19.022;2023-02-01T03:28:14;3.75;;;2.28;;
27003;SDS011;14546;47.590;19.022;2023-02-01T03:30:41;2.92;;;2.05;;
27003;SDS011;14546;47.590;19.022;2023-02-01T03:33:10;3.92;;;2.40;;
27003;SDS011;14546;47.590;19.022;2023-02-01T03:38:31;4.30;;;2.55;;
27003;SDS011;14546;47.590;19.022;2023-02-01T03:41:22;5.63;;;3.05;;
27003;SDS011;14546;47.590;19.022;2023-02-01T03:43:54;5.07;;;2.28;;
27003;SDS011;14546;47.590;19.022;2023-02-01T03:46:26;4.22;;;2.53;;
27003;SDS011;14546;47.590;19.022;2023-02-01T03:48:53;4.57;;;2.60;;
27003;SDS011;14546;47.590;19.022;2023-02-01T03:51:20;4.00;;;3.03;;
27003;SDS011;14546;47.590;19.022;2023-02-01T03:53:46;4.10;;;2.80;;
27003;SDS011;14546;47.590;19.022;2023-02-01T03:56:14;3.80;;;2.78;;
27003;SDS011;14546;47.590;19.022;2023-02-01T03:58:40;4.13;;;2.53;;
27003;SDS011;14546;47.590;19.022;2023-02-01T04:01:06;4.65;;;3.13;;
27003;SDS011;14546;47.590;19.022;2023-02-01T04:03:32;4.65;;;3.08;;
27003;SDS011;14546;47.590;19.022;2023-02-01T04:05:58;3.90;;;2.50;;
27003;SDS011;14546;47.590;19.022;2023-02-01T04:08:24;3.00;;;2.60;;
27003;SDS011;14546;47.590;19.022;2023-02-01T04:10:50;4.97;;;3.10;;
27003;SDS011;14546;47.590;19.022;2023-02-01T04:13:16;4.28;;;2.65;;
27003;SDS011;14546;47.590;19.022;2023-02-01T04:15:46;3.95;;;2.75;;
27003;SDS011;14546;47.590;19.022;2023-02-01T04:18:14;4.25;;;2.85;;
27003;SDS011;14546;47.590;19.022;2023-02-01T04:20:41;12.40;;;3.85;;
27003;SDS011;14546;47.590;19.022;2023-02-01T04:23:08;5.20;;;2.80;;
27003;SDS011;14546;47.590;19.022;2023-02-01T04:25:34;6.93;;;3.45;;
27003;SDS011;14546;47.590;19.022;2023-02-01T04:28:00;6.82;;;3.28;;
27003;SDS011;14546;47.590;19.022;2023-02-01T04:30:26;5.05;;;3.38;;
27003;SDS011;14546;47.590;19.022;2023-02-01T04:32:52;3.90;;;2.67;;
27003;SDS011;14546;47.590;19.022;2023-02-01T04:35:18;4.68;;;2.80;;
27003;SDS011;14546;47.590;19.022;2023-02-01T04:37:44;4.85;;;2.85;;
27003;SDS011;14546;47.590;19.022;2023-02-01T04:40:10;4.03;;;3.03;;
27003;SDS011;14546;47.590;19.022;2023-02-01T04:42:36;3.65;;;3.20;;
27003;SDS011;14546;47.590;19.022;2023-02-01T04:45:03;4.15;;;2.97;;
27003;SDS011;14546;47.590;19.022;2023-02-01T04:47:29;4.10;;;2.97;;
27003;SDS011;14546;47.590;19.022;2023-02-01T04:49:55;4.97;;;2.97;;
27003;SDS011;14546;47.590;19.022;2023-02-01T04:52:21;4.68;;;3.03;;
27003;SDS011;14546;47.590;19.022;2023-02-01T04:54:47;5.32;;;3.22;;
27003;SDS011;14546;47.590;19.022;2023-02-01T04:57:13;6.57;;;3.70;;
27003;SDS011;14546;47.590;19.022;2023-02-01T04:59:40;3.72;;;2.75;;
27003;SDS011;14546;47.590;19.022;2023-02-01T05:02:06;5.00;;;3.15;;
27003;SDS011;14546;47.590;19.022;2023-02-01T05:04:32;4.13;;;3.15;;
27003;SDS011;14546;47.590;19.022;2023-02-01T05:06:58;3.55;;;2.85;;
27003;SDS011;14546;47.590;19.022;2023-02-01T05:09:24;4.40;;;3.10;;
27003;SDS011;14546;47.590;19.022;2023-02-01T05:11:50;5.20;;;3.13;;
27003;SDS011;14546;47.590;19.022;2023-02-01T05:14:34;5.25;;;2.92;;
27003;SDS011;14546;47.590;19.022;2023-02-01T05:17:00;3.63;;;2.70;;
27003;SDS011;14546;47.590;19.022;2023-02-01T05:19:26;5.00;;;2.78;;
27003;SDS011;14546;47.590;19.022;2023-02-01T05:21:53;5.05;;;2.78;;
27003;SDS011;14546;47.590;19.022;2023-02-01T05:24:19;4.28;;;2.45;;
27003;SDS011;14546;47.590;19.022;2023-02-01T05:26:46;3.90;;;2.55;;
27003;SDS011;14546;47.590;19.022;2023-02-01T05:29:12;6.72;;;2.65;;
27003;SDS011;14546;47.590;19.022;2023-02-01T05:31:38;4.65;;;2.80;;
27003;SDS011;14546;47.590;19.022;2023-02-01T05:34:04;7.10;;;2.53;;
27003;SDS011;14546;47.590;19.022;2023-02-01T05:36:30;4.03;;;3.03;;
27003;SDS011;14546;47.590;19.022;2023-02-01T05:38:57;5.05;;;3.40;;
27003;SDS011;14546;47.590;19.022;2023-02-01T05:41:23;5.72;;;2.97;;
27003;SDS011;14546;47.590;19.022;2023-02-01T05:43:49;3.70;;;2.83;;
27003;SDS011;14546;47.590;19.022;2023-02-01T05:46:15;5.78;;;3.78;;
27003;SDS011;14546;47.590;19.022;2023-02-01T05:48:41;3.97;;;2.85;;
27003;SDS011;14546;47.590;19.022;2023-02-01T05:51:08;4.57;;;2.92;;
27003;SDS011;14546;47.590;19.022;2023-02-01T05:53:34;5.25;;;3.47;;
27003;SDS011;14546;47.590;19.022;2023-02-01T05:56:00;4.57;;;3.10;;
27003;SDS011;14546;47.590;19.022;2023-02-01T05:58:26;5.10;;;3.35;;
27003;SDS011;14546;47.590;19.022;2023-02-01T06:00:52;5.35;;;3.13;;
27003;SDS011;14546;47.590;19.022;2023-02-01T06:03:18;4.90;;;2.97;;
27003;SDS011;14546;47.590;19.022;2023-02-01T06:05:45;5.30;;;3.58;;
27003;SDS011;14546;47.590;19.022;2023-02-01T06:08:11;4.72;;;3.00;;
27003;SDS011;14546;47.590;19.022;2023-02-01T06:10:37;5.07;;;3.90;;
27003;SDS011;14546;47.590;19.022;2023-02-01T06:13:03;4.53;;;3.42;;
27003;SDS011;14546;47.590;19.022;2023-02-01T06:15:29;4.82;;;3.42;;
27003;SDS011;14546;47.590;19.022;2023-02-01T06:17:56;5.03;;;3.05;;
27003;SDS011;14546;47.590;19.022;2023-02-01T06:20:22;6.25;;;3.78;;
27003;SDS011;14546;47.590;19.022;2023-02-01T06:22:48;6.78;;;3.75;;
27003;SDS011;14546;47.590;19.022;2023-02-01T06:25:15;13.82;;;5.75;;
27003;SDS011;14546;47.590;19.022;2023-02-01T06:27:42;13.85;;;5.28;;
27003;SDS011;14546;47.590;19.022;2023-02-01T06:30:10;8.25;;;4.57;;
27003;SDS011;14546;47.590;19.022;2023-02-01T06:32:39;9.55;;;4.20;;
27003;SDS011;14546;47.590;19.022;2023-02-01T06:35:06;13.85;;;4.97;;
27003;SDS011;14546;47.590;19.022;2023-02-01T06:37:33;15.82;;;5.90;;
27003;SDS011;14546;47.590;19.022;2023-02-01T06:39:59;23.00;;;6.88;;
27003;SDS011;14546;47.590;19.022;2023-02-01T06:42:25;21.30;;;7.97;;
27003;SDS011;14546;47.590;19.022;2023-02-01T06:44:51;21.63;;;7.82;;
27003;SDS011;14546;47.590;19.022;2023-02-01T06:47:17;17.25;;;7.28;;
27003;SDS011;14546;47.590;19.022;2023-02-01T06:49:43;11.30;;;5.40;;
27003;SDS011;14546;47.590;19.022;2023-02-01T06:52:09;10.85;;;5.10;;
27003;SDS011;14546;47.590;19.022;2023-02-01T06:54:35;10.18;;;5.30;;
27003;SDS011;14546;47.590;19.022;2023-02-01T06:57:02;10.55;;;4.80;;
27003;SDS011;14546;47.590;19.022;2023-02-01T06:59:28;12.63;;;6.25;;
27003;SDS011;14546;47.590;19.022;2023-02-01T07:01:54;18.88;;;7.63;;
27003;SDS011;14546;47.590;19.022;2023-02-01T07:04:20;13.48;;;7.15;;
27003;SDS011;14546;47.590;19.022;2023-02-01T07:06:46;15.85;;;7.47;;
27003;SDS011;14546;47.590;19.022;2023-02-01T07:09:12;11.48;;;5.63;;
27003;SDS011;14546;47.590;19.022;2023-02-01T07:11:39;14.75;;;5.95;;
27003;SDS011;14546;47.590;19.022;2023-02-01T07:14:12;13.20;;;6.45;;
27003;SDS011;14546;47.590;19.022;2023-02-01T07:16:38;10.95;;;5.95;;
27003;SDS011;14546;47.590;19.022;2023-02-01T07:19:04;16.88;;;6.13;;
27003;SDS011;14546;47.590;19.022;2023-02-01T07:21:30;11.02;;;5.93;;
27003;SDS011;14546;47.590;19.022;2023-02-01T07:23:57;13.02;;;5.82;;
27003;SDS011;14546;47.590;19.022;2023-02-01T07:26:23;8.27;;;3.85;;
27003;SDS011;14546;47.590;19.022;2023-02-01T07:28:49;6.35;;;3.45;;
27003;SDS011;14546;47.590;19.022;2023-02-01T07:31:16;5.80;;;3.58;;
27003;SDS011;14546;47.590;19.022;2023-02-01T07:33:47;9.18;;;3.53;;
27003;SDS011;14546;47.590;19.022;2023-02-01T07:36:16;12.35;;;4.75;;
27003;SDS011;14546;47.590;19.022;2023-02-01T07:38:43;6.63;;;3.00;;
27003;SDS011;14546;47.590;19.022;2023-02-01T07:41:09;6.05;;;3.30;;
27003;SDS011;14546;47.590;19.022;2023-02-01T07:43:35;5.75;;;3.15;;
27003;SDS011;14546;47.590;19.022;2023-02-01T07:46:02;5.65;;;2.95;;
27003;SDS011;14546;47.590;19.022;2023-02-01T07:48:29;5.75;;;3.13;;
27003;SDS011;14546;47.590;19.022;2023-02-01T07:51:05;7.78;;;3.33;;
27003;SDS011;14546;47.590;19.022;2023-02-01T07:53:32;5.75;;;3.00;;
27003;SDS011;14546;47.590;19.022;2023-02-01T07:55:59;4.70;;;2.95;;
27003;SDS011;14546;47.590;19.022;2023-02-01T07:58:25;4.50;;;2.78;;
27003;SDS011;14546;47.590;19.022;2023-02-01T08:00:51;4.65;;;2.75;;
27003;SDS011;14546;47.590;19.022;2023-02-01T08:03:36;5.95;;;2.70;;
27003;SDS011;14546;47.590;19.022;2023-02-01T08:06:02;6.35;;;3.20;;
27003;SDS011;14546;47.590;19.022;2023-02-01T08:08:29;5.70;;;2.72;;
27003;SDS011;14546;47.590;19.022;2023-02-01T08:10:58;6.60;;;2.60;;
27003;SDS011;14546;47.590;19.022;2023-02-01T08:13:25;4.55;;;2.63;;
27003;SDS011;14546;47.590;19.022;2023-02-01T08:15:51;3.72;;;2.70;;
27003;SDS011;14546;47.590;19.022;2023-02-01T08:18:17;5.35;;;2.85;;
27003;SDS011;14546;47.590;19.022;2023-02-01T08:20:43;3.58;;;3.00;;
27003;SDS011;14546;47.590;19.022;2023-02-01T08:23:11;5.30;;;2.45;;
27003;SDS011;14546;47.590;19.022;2023-02-01T08:25:37;7.63;;;3.53;;
27003;SDS011;14546;47.590;19.022;2023-02-01T08:28:04;7.38;;;2.92;;
27003;SDS011;14546;47.590;19.022;2023-02-01T08:30:30;6.50;;;3.25;;
27003;SDS011;14546;47.590;19.022;2023-02-01T08:32:57;6.72;;;3.70;;
27003;SDS011;14546;47.590;19.022;2023-02-01T08:35:23;8.02;;;4.30;;
27003;SDS011;14546;47.590;19.022;2023-02-01T08:37:49;9.02;;;3.85;;
27003;SDS011;14546;47.590;19.022;2023-02-01T08:40:16;9.65;;;4.05;;
27003;SDS011;14546;47.590;19.022;2023-02-01T08:42:42;10.45;;;4.15;;
27003;SDS011;14546;47.590;19.022;2023-02-01T08:45:25;9.90;;;5.15;;
27003;SDS011;14546;47.590;19.022;2023-02-01T08:47:52;9.10;;;4.97;;
27003;SDS011;14546;47.590;19.022;2023-02-01T08:50:18;7.13;;;3.97;;
27003;SDS011;14546;47.590;19.022;2023-02-01T08:52:45;6.70;;;2.92;;
27003;SDS011;14546;47.590;19.022;2023-02-01T08:55:11;4.63;;;2.53;;
27003;SDS011;14546;47.590;19.022;2023-02-01T08:57:38;5.32;;;2.95;;
27003;SDS011;14546;47.590;19.022;2023-02-01T09:00:05;4.22;;;2.63;;
27003;SDS011;14546;47.590;19.022;2023-02-01T09:02:31;4.60;;;2.30;;
27003;SDS011;14546;47.590;19.022;2023-02-01T09:04:57;5.97;;;2.67;;
27003;SDS011;14546;47.590;19.022;2023-02-01T09:07:23;8.10;;;2.05;;
27003;SDS011;14546;47.590;19.022;2023-02-01T09:09:49;5.07;;;2.38;;
27003;SDS011;14546;47.590;19.022;2023-02-01T09:12:15;6.88;;;2.60;;
27003;SDS011;14546;47.590;19.022;2023-02-01T09:14:41;3.15;;;2.22;;
27003;SDS011;14546;47.590;19.022;2023-02-01T09:17:07;7.65;;;2.47;;
27003;SDS011;14546;47.590;19.022;2023-02-01T09:19:33;4.32;;;2.47;;
27003;SDS011;14546;47.590;19.022;2023-02-01T09:21:59;7.78;;;2.65;;
27003;SDS011;14546;47.590;19.022;2023-02-01T09:24:25;8.60;;;2.13;;
27003;SDS011;14546;47.590;19.022;2023-02-01T09:26:52;2.88;;;1.80;;
27003;SDS011;14546;47.590;19.022;2023-02-01T09:29:18;8.90;;;3.35;;
27003;SDS011;14546;47.590;19.022;2023-02-01T09:31:44;6.10;;;2.83;;
27003;SDS011;14546;47.590;19.022;2023-02-01T09:34:10;4.97;;;2.95;;
27003;SDS011;14546;47.590;19.022;2023-02-01T09:36:36;4.07;;;2.63;;
27003;SDS011;14546;47.590;19.022;2023-02-01T09:39:02;7.60;;;2.88;;
27003;SDS011;14546;47.590;19.022;2023-02-01T09:44:14;6.07;;;3.03;;
27003;SDS011;14546;47.590;19.022;2023-02-01T09:46:42;5.13;;;3.08;;
27003;SDS011;14546;47.590;19.022;2023-02-01T09:49:30;7.60;;;3.17;;
27003;SDS011;14546;47.590;19.022;2023-02-01T09:51:54;5.63;;;3.25;;
27003;SDS011;14546;47.590;19.022;2023-02-01T09:54:22;5.43;;;3.55;;
27003;SDS011;14546;47.590;19.022;2023-02-01T09:57:00;4.32;;;2.50;;
27003;SDS011;14546;47.590;19.022;2023-02-01T10:01:56;6.03;;;3.47;;
27003;SDS011;14546;47.590;19.022;2023-02-01T10:04:24;9.35;;;3.42;;
27003;SDS011;14546;47.590;19.022;2023-02-01T10:25:04;7.50;;;3.17;;
27003;SDS011;14546;47.590;19.022;2023-02-01T10:27:34;7.82;;;3.67;;
27003;SDS011;14546;47.590;19.022;2023-02-01T10:30:04;4.55;;;2.42;;
27003;SDS011;14546;47.590;19.022;2023-02-01T10:32:31;4.60;;;2.70;;
27003;SDS011;14546;47.590;19.022;2023-02-01T10:35:00;5.70;;;2.75;;
27003;SDS011;14546;47.590;19.022;2023-02-01T10:37:31;5.20;;;2.08;;
27003;SDS011;14546;47.590;19.022;2023-02-01T10:39:59;5.50;;;1.90;;
27003;SDS011;14546;47.590;19.022;2023-02-01T10:42:26;3.35;;;1.92;;
27003;SDS011;14546;47.590;19.022;2023-02-01T10:44:54;3.28;;;2.17;;
27003;SDS011;14546;47.590;19.022;2023-02-01T10:47:21;6.60;;;2.20;;
27003;SDS011;14546;47.590;19.022;2023-02-01T10:55:20;6.72;;;2.63;;
27003;SDS011;14546;47.590;19.022;2023-02-01T10:57:48;4.53;;;2.17;;
27003;SDS011;14546;47.590;19.022;2023-02-01T11:00:21;3.72;;;2.78;;
27003;SDS011;14546;47.590;19.022;2023-02-01T11:02:47;5.03;;;2.53;;
27003;SDS011;14546;47.590;19.022;2023-02-01T11:05:15;6.15;;;3.20;;
27003;SDS011;14546;47.590;19.022;2023-02-01T11:07:46;6.75;;;3.30;;
27003;SDS011;14546;47.590;19.022;2023-02-01T11:10:35;5.22;;;3.47;;
27003;SDS011;14546;47.590;19.022;2023-02-01T11:13:01;5.25;;;3.33;;
27003;SDS011;14546;47.590;19.022;2023-02-01T11:15:27;5.22;;;3.15;;
27003;SDS011;14546;47.590;19.022;2023-02-01T11:17:54;5.43;;;2.97;;
27003;SDS011;14546;47.590;19.022;2023-02-01T11:20:39;5.88;;;3.50;;
27003;SDS011;14546;47.590;19.022;2023-02-01T11:23:12;6.80;;;2.90;;
27003;SDS011;14546;47.590;19.022;2023-02-01T11:25:40;6.70;;;3.33;;
27003;SDS011;14546;47.590;19.022;2023-02-01T11:30:39;6.55;;;3.60;;
27003;SDS011;14546;47.590;19.022;2023-02-01T11:33:09;5.85;;;3.72;;
27003;SDS011;14546;47.590;19.022;2023-02-01T11:35:38;17.00;;;3.90;;
27003;SDS011;14546;47.590;19.022;2023-02-01T11:38:11;7.50;;;3.95;;
27003;SDS011;14546;47.590;19.022;2023-02-01T11:40:38;10.40;;;4.60;;
27003;SDS011;14546;47.590;19.022;2023-02-01T11:45:33;10.00;;;5.35;;
27003;SDS011;14546;47.590;19.022;2023-02-01T11:48:02;9.55;;;6.40;;
27003;SDS011;14546;47.590;19.022;2023-02-01T12:05:59;15.63;;;7.28;;
27003;SDS011;14546;47.590;19.022;2023-02-01T12:13:32;9.80;;;6.95;;
27003;SDS011;14546;47.590;19.022;2023-02-01T12:17:03;12.32;;;6.55;;
27003;SDS011;14546;47.590;19.022;2023-02-01T12:26:55;8.95;;;6.30;;
27003;SDS011;14546;47.590;19.022;2023-02-01T12:34:44;10.95;;;7.28;;
27003;SDS011;14546;47.590;19.022;2023-02-01T12:37:16;9.93;;;6.65;;
27003;SDS011;14546;47.590;19.022;2023-02-01T12:42:24;9.60;;;6.93;;
27003;SDS011;14546;47.590;19.022;2023-02-01T12:44:53;9.52;;;5.40;;
27003;SDS011;14546;47.590;19.022;2023-02-01T12:52:39;12.02;;;7.75;;
27003;SDS011;14546;47.590;19.022;2023-02-01T12:55:07;13.52;;;7.95;;
27003;SDS011;14546;47.590;19.022;2023-02-01T12:57:37;15.80;;;9.38;;
27003;SDS011;14546;47.590;19.022;2023-02-01T13:00:13;13.60;;;8.32;;
27003;SDS011;14546;47.590;19.022;2023-02-01T13:02:44;9.38;;;6.80;;
27003;SDS011;14546;47.590;19.022;2023-02-01T13:10:18;10.73;;;6.88;;
27003;SDS011;14546;47.590;19.022;2023-02-01T13:15:26;9.48;;;5.30;;
27003;SDS011;14546;47.590;19.022;2023-02-01T13:17:55;7.20;;;4.93;;
27003;SDS011;14546;47.590;19.022;2023-02-01T13:20:31;7.03;;;5.47;;
27003;SDS011;14546;47.590;19.022;2023-02-01T13:28:02;7.72;;;5.20;;
27003;SDS011;14546;47.590;19.022;2023-02-01T13:30:33;8.70;;;5.18;;
27003;SDS011;14546;47.590;19.022;2023-02-01T13:43:34;14.05;;;5.13;;
27003;SDS011;14546;47.590;19.022;2023-02-01T13:46:06;7.63;;;4.53;;
27003;SDS011;14546;47.590;19.022;2023-02-01T13:51:11;7.95;;;2.67;;
27003;SDS011;14546;47.590;19.022;2023-02-01T13:53:43;5.47;;;2.95;;
27003;SDS011;14546;47.590;19.022;2023-02-01T13:56:11;6.35;;;2.60;;
27003;SDS011;14546;47.590;19.022;2023-02-01T13:58:40;4.32;;;3.08;;
27003;SDS011;14546;47.590;19.022;2023-02-01T14:11:41;7.60;;;3.63;;
27003;SDS011;14546;47.590;19.022;2023-02-01T14:16:43;10.18;;;4.07;;
27003;SDS011;14546;47.590;19.022;2023-02-01T14:19:23;10.25;;;3.88;;
27003;SDS011;14546;47.590;19.022;2023-02-01T14:21:51;4.57;;;2.13;;
27003;SDS011;14546;47.590;19.022;2023-02-01T14:24:36;8.75;;;3.03;;
27003;SDS011;14546;47.590;19.022;2023-02-01T14:27:07;6.45;;;2.10;;
27003;SDS011;14546;47.590;19.022;2023-02-01T14:29:41;5.50;;;2.33;;
27003;SDS011;14546;47.590;19.022;2023-02-01T14:34:53;5.82;;;2.35;;
27003;SDS011;14546;47.590;19.022;2023-02-01T14:44:41;7.68;;;1.90;;
27003;SDS011;14546;47.590;19.022;2023-02-01T14:47:11;8.05;;;2.25;;
27003;SDS011;14546;47.590;19.022;2023-02-01T14:52:29;4.03;;;2.13;;
27003;SDS011;14546;47.590;19.022;2023-02-01T14:54:57;5.13;;;3.20;;
27003;SDS011;14546;47.590;19.022;2023-02-01T14:57:26;7.45;;;2.97;;
27003;SDS011;14546;47.590;19.022;2023-02-01T15:00:07;6.30;;;2.75;;
27003;SDS011;14546;47.590;19.022;2023-02-01T15:02:34;6.68;;;2.67;;
27003;SDS011;14546;47.590;19.022;2023-02-01T15:05:12;6.85;;;2.67;;
27003;SDS011;14546;47.590;19.022;2023-02-01T15:07:41;6.25;;;2.63;;
27003;SDS011;14546;47.590;19.022;2023-02-01T15:10:08;6.40;;;2.28;;
27003;SDS011;14546;47.590;19.022;2023-02-01T15:12:34;4.72;;;2.47;;
27003;SDS011;14546;47.590;19.022;2023-02-01T15:15:14;4.40;;;1.83;;
27003;SDS011;14546;47.590;19.022;2023-02-01T15:17:42;2.25;;;1.40;;
27003;SDS011;14546;47.590;19.022;2023-02-01T15:20:15;2.40;;;1.30;;
27003;SDS011;14546;47.590;19.022;2023-02-01T15:22:42;3.60;;;1.55;;
27003;SDS011;14546;47.590;19.022;2023-02-01T15:25:18;3.33;;;1.65;;
27003;SDS011;14546;47.590;19.022;2023-02-01T15:27:45;3.95;;;1.63;;
27003;SDS011;14546;47.590;19.022;2023-02-01T15:30:18;5.10;;;1.92;;
27003;SDS011;14546;47.590;19.022;2023-02-01T15:32:45;4.30;;;2.67;;
27003;SDS011;14546;47.590;19.022;2023-02-01T15:38:17;7.13;;;2.70;;
27003;SDS011;14546;47.590;19.022;2023-02-01T15:43:27;3.63;;;2.03;;
27003;SDS011;14546;47.590;19.022;2023-02-01T15:46:01;9.75;;;2.58;;
27003;SDS011;14546;47.590;19.022;2023-02-01T15:48:32;4.80;;;2.70;;
27003;SDS011;14546;47.590;19.022;2023-02-01T15:50:59;6.18;;;2.70;;
27003;SDS011;14546;47.590;19.022;2023-02-01T15:53:26;7.10;;;2.60;;
27003;SDS011;14546;47.590;19.022;2023-02-01T15:56:00;4.55;;;2.40;;
27003;SDS011;14546;47.590;19.022;2023-02-01T15:58:26;6.72;;;2.63;;
27003;SDS011;14546;47.590;19.022;2023-02-01T16:00:57;5.65;;;2.50;;
27003;SDS011;14546;47.590;19.022;2023-02-01T16:03:25;6.00;;;2.80;;
27003;SDS011;14546;47.590;19.022;2023-02-01T16:05:59;6.00;;;2.60;;
27003;SDS011;14546;47.590;19.022;2023-02-01T16:10:52;10.52;;;2.60;;
27003;SDS011;14546;47.590;19.022;2023-02-01T16:13:19;6.22;;;2.40;;
27003;SDS011;14546;47.590;19.022;2023-02-01T16:15:45;6.57;;;2.28;;
27003;SDS011;14546;47.590;19.022;2023-02-01T16:18:12;6.72;;;2.40;;
27003;SDS011;14546;47.590;19.022;2023-02-01T16:20:38;6.13;;;2.20;;
27003;SDS011;14546;47.590;19.022;2023-02-01T16:23:05;6.78;;;2.53;;
27003;SDS011;14546;47.590;19.022;2023-02-01T16:25:32;10.05;;;2.65;;
27003;SDS011;14546;47.590;19.022;2023-02-01T16:27:58;6.28;;;2.28;;
27003;SDS011;14546;47.590;19.022;2023-02-01T16:30:24;4.60;;;2.28;;
27003;SDS011;14546;47.590;19.022;2023-02-01T16:32:54;5.15;;;2.30;;
27003;SDS011;14546;47.590;19.022;2023-02-01T16:35:22;8.48;;;2.72;;
27003;SDS011;14546;47.590;19.022;2023-02-01T16:37:49;6.45;;;2.63;;
27003;SDS011;14546;47.590;19.022;2023-02-01T16:40:15;6.50;;;2.70;;
27003;SDS011;14546;47.590;19.022;2023-02-01T16:42:42;7.97;;;3.08;;
27003;SDS011;14546;47.590;19.022;2023-02-01T16:45:08;8.25;;;3.38;;
27003;SDS011;14546;47.590;19.022;2023-02-01T16:47:36;10.52;;;3.55;;
27003;SDS011;14546;47.590;19.022;2023-02-01T16:50:02;6.45;;;3.40;;
27003;SDS011;14546;47.590;19.022;2023-02-01T16:52:29;9.35;;;4.15;;
27003;SDS011;14546;47.590;19.022;2023-02-01T16:54:55;17.05;;;3.80;;
27003;SDS011;14546;47.590;19.022;2023-02-01T16:57:21;10.27;;;3.75;;
27003;SDS011;14546;47.590;19.022;2023-02-01T16:59:48;8.98;;;3.40;;
27003;SDS011;14546;47.590;19.022;2023-02-01T17:02:16;14.57;;;4.00;;
27003;SDS011;14546;47.590;19.022;2023-02-01T17:04:44;7.85;;;3.45;;
27003;SDS011;14546;47.590;19.022;2023-02-01T17:07:11;8.40;;;3.42;;
27003;SDS011;14546;47.590;19.022;2023-02-01T17:09:38;5.55;;;2.72;;
27003;SDS011;14546;47.590;19.022;2023-02-01T17:12:04;5.95;;;3.13;;
27003;SDS011;14546;47.590;19.022;2023-02-01T17:14:31;5.85;;;3.22;;
27003;SDS011;14546;47.590;19.022;2023-02-01T17:17:00;13.02;;;3.15;;
27003;SDS011;14546;47.590;19.022;2023-02-01T17:19:27;6.70;;;3.35;;
27003;SDS011;14546;47.590;19.022;2023-02-01T17:21:54;9.80;;;4.18;;
27003;SDS011;14546;47.590;19.022;2023-02-01T17:24:23;12.30;;;4.32;;
27003;SDS011;14546;47.590;19.022;2023-02-01T17:26:50;11.73;;;5.25;;
27003;SDS011;14546;47.590;19.022;2023-02-01T17:29:17;12.02;;;5.13;;